WJA577 CYHZ-CYEG
Flight info
| Callsign | WJA577 |
|---|---|
| Flight time | N/A |
| Altitude | 36000 |
| Route | KELNO DCT EMLOB DCT PQI DCT YUC DCT VETRO DCT 52N090W 53N100W DCT YPA DCT REFEX DCT CAMRA IGSOX3 |
| Aircraft | B737/M-SDE2E3FGHIRWXY/LB1 |
Departure
| Time | N/A |
|---|---|
| Airport | Halifax / Stanfield International Airport (CYHZ) |
Arrival
| Time | 2026-05-06 01:10 |
|---|---|
| Airport | Edmonton International Airport (CYEG) |
| Time | Latitude | Longitude | Altitude | Speed | Heading |
|---|---|---|---|---|---|
| 2026-05-06 00:42 | 52.70643 | -109.98847 | 35959 ft | 445 kts | 277° |
| 2026-05-06 00:42 | 52.70730 | -110.03904 | 36061 ft | 436 kts | 287° |
| 2026-05-06 00:43 | 52.71934 | -110.13587 | 36201 ft | 432 kts | 294° |
| 2026-05-06 00:43 | 52.73361 | -110.23271 | 36237 ft | 435 kts | 294° |
| 2026-05-06 00:44 | 52.74758 | -110.32998 | 36240 ft | 435 kts | 294° |
| 2026-05-06 00:44 | 52.76126 | -110.42738 | 36250 ft | 435 kts | 293° |
| 2026-05-06 00:45 | 52.77464 | -110.52416 | 36226 ft | 423 kts | 294° |
| 2026-05-06 00:45 | 52.78091 | -110.57056 | 36242 ft | 406 kts | 294° |
| 2026-05-06 00:45 | 52.78689 | -110.61482 | 36241 ft | 396 kts | 294° |
| 2026-05-06 00:46 | 52.79911 | -110.70337 | 35992 ft | 397 kts | 295° |
| 2026-05-06 00:46 | 52.80519 | -110.74749 | 35681 ft | 391 kts | 295° |
| 2026-05-06 00:46 | 52.81116 | -110.79122 | 35252 ft | 388 kts | 295° |
| 2026-05-06 00:46 | 52.81702 | -110.83449 | 34852 ft | 384 kts | 296° |
| 2026-05-06 00:47 | 52.82281 | -110.87729 | 34450 ft | 380 kts | 296° |
| 2026-05-06 00:47 | 52.82852 | -110.91970 | 34011 ft | 377 kts | 297° |
| 2026-05-06 00:47 | 52.83420 | -110.96189 | 33540 ft | 373 kts | 297° |
| 2026-05-06 00:47 | 52.83978 | -111.00353 | 33109 ft | 369 kts | 297° |
| 2026-05-06 00:48 | 52.84531 | -111.04486 | 32686 ft | 366 kts | 297° |
| 2026-05-06 00:48 | 52.85076 | -111.08575 | 32285 ft | 362 kts | 297° |
| 2026-05-06 00:48 | 52.85615 | -111.12624 | 31874 ft | 359 kts | 297° |
| 2026-05-06 00:48 | 52.86147 | -111.16642 | 31480 ft | 355 kts | 297° |
| 2026-05-06 00:49 | 52.86675 | -111.20622 | 31093 ft | 353 kts | 297° |
| 2026-05-06 00:49 | 52.87197 | -111.24574 | 30696 ft | 351 kts | 297° |
| 2026-05-06 00:49 | 52.87716 | -111.28512 | 30303 ft | 349 kts | 297° |
| 2026-05-06 00:49 | 52.88229 | -111.32417 | 29840 ft | 347 kts | 297° |
| 2026-05-06 00:50 | 52.88731 | -111.36254 | 29383 ft | 343 kts | 296° |
| 2026-05-06 00:50 | 52.89232 | -111.40101 | 28942 ft | 340 kts | 296° |
| 2026-05-06 00:50 | 52.89728 | -111.43913 | 28520 ft | 337 kts | 296° |
| 2026-05-06 00:50 | 52.90218 | -111.47694 | 28092 ft | 335 kts | 296° |
| 2026-05-06 00:51 | 52.90705 | -111.51453 | 27666 ft | 332 kts | 296° |
| 2026-05-06 00:51 | 52.91185 | -111.55171 | 27250 ft | 330 kts | 296° |
| 2026-05-06 00:51 | 52.91662 | -111.58880 | 26826 ft | 327 kts | 296° |
| 2026-05-06 00:51 | 52.92136 | -111.62562 | 26409 ft | 326 kts | 295° |
| 2026-05-06 00:52 | 52.92608 | -111.66233 | 25979 ft | 325 kts | 295° |
| 2026-05-06 00:52 | 52.93076 | -111.69890 | 25533 ft | 324 kts | 295° |
| 2026-05-06 00:52 | 52.93542 | -111.73541 | 25111 ft | 323 kts | 295° |
| 2026-05-06 00:52 | 52.94006 | -111.77186 | 24671 ft | 323 kts | 295° |
| 2026-05-06 00:53 | 52.94468 | -111.80825 | 24241 ft | 323 kts | 294° |
| 2026-05-06 00:53 | 52.94928 | -111.84463 | 23793 ft | 322 kts | 294° |
| 2026-05-06 00:53 | 52.95387 | -111.88103 | 23278 ft | 322 kts | 294° |
| 2026-05-06 00:53 | 52.95841 | -111.91717 | 22828 ft | 319 kts | 293° |
| 2026-05-06 00:54 | 52.96291 | -111.95319 | 22390 ft | 317 kts | 293° |
| 2026-05-06 00:54 | 52.96738 | -111.98893 | 21953 ft | 315 kts | 292° |
| 2026-05-06 00:54 | 52.97180 | -112.02445 | 21525 ft | 313 kts | 292° |
| 2026-05-06 00:54 | 52.97619 | -112.05974 | 21094 ft | 312 kts | 292° |
| 2026-05-06 00:55 | 52.98056 | -112.09494 | 20669 ft | 310 kts | 292° |
| 2026-05-06 00:55 | 52.98485 | -112.12954 | 20238 ft | 310 kts | 291° |
| 2026-05-06 00:55 | 52.98918 | -112.16459 | 19795 ft | 310 kts | 291° |
| 2026-05-06 00:55 | 52.99349 | -112.19955 | 19362 ft | 309 kts | 291° |
| 2026-05-06 00:56 | 52.99780 | -112.23455 | 18919 ft | 309 kts | 291° |
| 2026-05-06 00:56 | 53.00209 | -112.26955 | 18478 ft | 309 kts | 291° |
| 2026-05-06 00:56 | 53.00636 | -112.30452 | 17985 ft | 309 kts | 290° |
| 2026-05-06 00:56 | 53.01065 | -112.33961 | 17428 ft | 310 kts | 290° |
| 2026-05-06 00:57 | 53.01491 | -112.37469 | 16982 ft | 309 kts | 289° |
| 2026-05-06 00:57 | 53.01914 | -112.40957 | 16542 ft | 307 kts | 289° |
| 2026-05-06 00:57 | 53.02334 | -112.44431 | 16109 ft | 306 kts | 288° |
| 2026-05-06 00:57 | 53.02750 | -112.47886 | 15674 ft | 304 kts | 287° |
| 2026-05-06 00:58 | 53.03170 | -112.51327 | 15242 ft | 303 kts | 288° |
| 2026-05-06 00:58 | 53.03663 | -112.54717 | 14805 ft | 301 kts | 289° |
| 2026-05-06 00:58 | 53.04187 | -112.58029 | 14374 ft | 300 kts | 289° |
| 2026-05-06 00:58 | 53.04723 | -112.61381 | 13928 ft | 300 kts | 288° |
| 2026-05-06 00:59 | 53.05255 | -112.64730 | 13480 ft | 299 kts | 288° |
| 2026-05-06 00:59 | 53.05779 | -112.68060 | 13036 ft | 297 kts | 288° |
| 2026-05-06 00:59 | 53.06296 | -112.71368 | 12609 ft | 296 kts | 288° |
| 2026-05-06 00:59 | 53.06811 | -112.74678 | 12182 ft | 295 kts | 287° |
| 2026-05-06 01:00 | 53.07320 | -112.77965 | 11770 ft | 292 kts | 287° |
| 2026-05-06 01:00 | 53.07824 | -112.81229 | 11346 ft | 291 kts | 287° |
| 2026-05-06 01:00 | 53.08325 | -112.84491 | 10937 ft | 290 kts | 287° |
| 2026-05-06 01:00 | 53.08824 | -112.87739 | 10514 ft | 290 kts | 287° |
| 2026-05-06 01:01 | 53.09322 | -112.90990 | 10194 ft | 287 kts | 287° |
| 2026-05-06 01:01 | 53.09809 | -112.94177 | 9973 ft | 278 kts | 287° |
| 2026-05-06 01:01 | 53.10277 | -112.97248 | 9504 ft | 279 kts | 286° |
| 2026-05-06 01:01 | 53.10755 | -113.00376 | 9047 ft | 279 kts | 286° |
| 2026-05-06 01:02 | 53.11229 | -113.03501 | 8655 ft | 278 kts | 286° |
| 2026-05-06 01:02 | 53.11699 | -113.06602 | 8426 ft | 270 kts | 286° |
| 2026-05-06 01:02 | 53.12156 | -113.09521 | 8333 ft | 251 kts | 287° |
| 2026-05-06 01:02 | 53.12593 | -113.12232 | 8229 ft | 234 kts | 287° |
| 2026-05-06 01:03 | 53.13003 | -113.14756 | 8091 ft | 217 kts | 287° |
| 2026-05-06 01:03 | 53.13383 | -113.17106 | 7955 ft | 203 kts | 287° |
| 2026-05-06 01:03 | 53.13736 | -113.19294 | 7829 ft | 189 kts | 288° |
| 2026-05-06 01:03 | 53.14065 | -113.21332 | 7672 ft | 177 kts | 288° |
| 2026-05-06 01:04 | 53.14383 | -113.23301 | 7376 ft | 175 kts | 288° |
| 2026-05-06 01:04 | 53.14699 | -113.25258 | 7057 ft | 175 kts | 287° |
| 2026-05-06 01:04 | 53.15013 | -113.27215 | 6711 ft | 175 kts | 287° |
| 2026-05-06 01:04 | 53.15328 | -113.29179 | 6375 ft | 175 kts | 287° |
| 2026-05-06 01:05 | 53.15636 | -113.31110 | 6095 ft | 172 kts | 287° |
| 2026-05-06 01:05 | 53.15938 | -113.33004 | 5944 ft | 170 kts | 287° |
| 2026-05-06 01:05 | 53.16248 | -113.34943 | 5750 ft | 176 kts | 287° |
| 2026-05-06 01:05 | 53.16837 | -113.36681 | 5502 ft | 173 kts | 321° |
| 2026-05-06 01:06 | 53.17713 | -113.38027 | 5325 ft | 172 kts | 317° |
| 2026-05-06 01:06 | 53.18556 | -113.39431 | 5113 ft | 171 kts | 317° |
| 2026-05-06 01:06 | 53.19395 | -113.40832 | 4918 ft | 170 kts | 317° |
| 2026-05-06 01:06 | 53.20230 | -113.42234 | 4704 ft | 171 kts | 316° |
| 2026-05-06 01:07 | 53.21053 | -113.43684 | 4424 ft | 173 kts | 315° |
| 2026-05-06 01:07 | 53.21869 | -113.45128 | 4209 ft | 169 kts | 316° |
| 2026-05-06 01:07 | 53.22680 | -113.46500 | 3951 ft | 162 kts | 317° |
| 2026-05-06 01:07 | 53.23478 | -113.47799 | 3629 ft | 158 kts | 319° |
| 2026-05-06 01:08 | 53.24280 | -113.49018 | 3482 ft | 154 kts | 319° |
| 2026-05-06 01:08 | 53.25049 | -113.50290 | 3313 ft | 158 kts | 316° |
| 2026-05-06 01:08 | 53.25794 | -113.51556 | 3255 ft | 147 kts | 317° |
| 2026-05-06 01:08 | 53.26505 | -113.52773 | 2947 ft | 146 kts | 317° |
| 2026-05-06 01:09 | 53.27223 | -113.53919 | 2749 ft | 141 kts | 317° |
| 2026-05-06 01:09 | 53.27927 | -113.55073 | 2568 ft | 142 kts | 316° |
| 2026-05-06 01:09 | 53.28627 | -113.56231 | 2416 ft | 142 kts | 316° |
| 2026-05-06 01:09 | 53.29301 | -113.57347 | 2383 ft | 121 kts | 315° |
| 2026-05-06 01:10 | 53.29773 | -113.58143 | 2387 ft | 48 kts | 314° |
| 2026-05-06 01:10 | 53.29898 | -113.58214 | 2384 ft | 7 kts | 5° |
| 2026-05-06 01:10 | 53.29951 | -113.58207 | 2385 ft | 8 kts | 3° |
| 2026-05-06 01:10 | 53.30005 | -113.58205 | 2383 ft | 3 kts | 1° |
| 2026-05-06 01:11 | 53.30054 | -113.58204 | 2383 ft | 11 kts | 359° |
| 2026-05-06 01:11 | 53.30125 | -113.58260 | 2383 ft | 12 kts | 316° |
| 2026-05-06 01:11 | 53.30198 | -113.58293 | 2383 ft | 12 kts | 39° |
| 2026-05-06 01:11 | 53.30259 | -113.58195 | 2387 ft | 7 kts | 44° |
| 2026-05-06 01:12 | 53.30295 | -113.58179 | 2387 ft | 6 kts | 336° |
| 2026-05-06 01:12 | 53.30327 | -113.58223 | 2385 ft | 6 kts | 316° |
| 2026-05-06 01:12 | 53.30362 | -113.58281 | 2385 ft | 8 kts | 315° |
| 2026-05-06 01:12 | 53.30374 | -113.58299 | 2383 ft | 6 kts | 322° |
| 2026-05-06 01:13 | 53.30426 | -113.58309 | 2383 ft | 9 kts | 36° |
| 2026-05-06 01:13 | 53.30450 | -113.58275 | 2387 ft | 0 kts | 39° |
| 2026-05-06 01:13 | 53.30461 | -113.58261 | 2383 ft | 4 kts | 37° |
| 2026-05-06 01:13 | 53.30477 | -113.58242 | 2387 ft | 1 kts | 35° |
| 2026-05-06 01:14 | 53.30477 | -113.58241 | 2386 ft | 0 kts | 35° |